Ascension Island, Ascension Island

8:24 AM GMT on September 22, 2014 (GMT +0000)
Ascension Aux Air Base / Wideawake Field | Change Station
CLOSE
Current Station
Airport
Location: Ascension Island,
Elevation: 259 ft
Nearby Weather Stations

Elev 259 ft 7.97 °S, 14.41 °W | Updated 34 minutes ago

Mostly Cloudy
Mostly Cloudy
73 °F
Feels Like 73 °F
N
12
Wind Variable Wind from SE

Today
High -- | Low -- °F
--% Chance of Precip.
Yesterday
High -- | Low -- °F
Precip. -- in
6:47 AM 6:53 PM
Waning Crescent, 3% visible
Pressure 29.98 in
Visibility 6.2 miles
Clouds Scattered Clouds 1500 ft
Mostly Cloudy 4000 ft
Dew Point 66 °F
Humidity 78%
Rainfall 0.00 in
Snow Depth Not available.
UV 1 out of 12
Pollen Not available.
Air Quality Not available.
Flu Activity Not available.
METAR FHAW 220750Z 13010KT 9999 SCT015 BKN040 23/19 Q1015 WHT TEMPO FEW015 BLU

More Conditions Fewer Conditions

Pressure 29.98 in
Visibility 6.2 miles
Clouds Scattered Clouds 1500 ft
Mostly Cloudy 4000 ft
Dew Point 66 °F
Humidity 78%
Rainfall 0.00 in
Snow Depth Not available.
UV 1 out of 12
Pollen Not available.
Air Quality Not available.
Flu Activity Not available.
METAR FHAW 220750Z 13010KT 9999 SCT015 BKN040 23/19 Q1015 WHT TEMPO FEW015 BLU

More Conditions Fewer Conditions

10-Day Weather Forecast

Almanac

Astronomy

Sep. 22, 2014 Rise Set
Actual Time 6:47 AM GMT 6:53 PM GMT
Civil Twilight 6:26 AM GMT 7:14 PM GMT
Nautical Twilight 6:02 AM GMT 7:38 PM GMT
Astronomical Twilight 5:37 AM GMT 8:02 PM GMT
Moon 5:25 AM GMT 5:40 PM GMT
Length of Visible Light 12h 48m
Length of Day
12h 06m
Tomorrow will be 0m 26s longer.
Waning Crescent, 3% of the Moon is Illuminated
Today
Waning Crescent
Sep 24
New
Oct 1
First Quarter
Oct 8
Full
Oct 15
Last Quarter

Yesterday's Extremes

Country Highs Country Lows

Community

WunderPhotos

Upload Photos

1,755,395 photos uploaded!

Nearby

Snow Depth

Not available.

Earthquake Activity

City Distance Mag. Time & Date
No recent earthquake activity has been reported nearby.
Minimum magnitude displayed is 2.5.

Coastal Water Temperatures

Place Temperature
No Stations Reporting

Nearby Weather Stations